Pagrindinis puslapis
METAR-TAF:

METAR-TAF

Oro uostai :

Turku, Suomija

platuma: 60-31N, ilguma: 022-16E, Aukštis: 49 m

Dabartinis oras

Ataskaita buvo paskelbta 34 minutes, ne 04:20 UTC
Vėjas 9 kt iš Pietų/Pietvakarių
Temperatūra 18°C
Drėgmė 88%
Slėgis 1019 hPa
Matomumas 10 km arba daugiau
nėra debesų žemiau 1500 m ir nėra kamuolinių lietaus debesų

METAR: EFTU 110420Z AUTO 21009KT CAVOK 18/16 Q1019

Laikas: 07:54 (04:54 UTC)

Prognozė

Ataskaita buvo paskelbta 2 valandos ir 21 minutes, ne 02:33 UTC
Prognozė galioja nuo 11 metu 03 UTC su 12 metu 03 UTC
Vėjas 9 kt iš Pietų/Pietvakarių
Matomumas 10 km arba daugiau
nėra debesų žemiau 1500 m ir nėra kamuolinių lietaus debesų
Tikimybė 30% :
Laikinai
nuo 12 metu 00 UTC su 12 metu 03 UTC
Matomumas: 3000 m
Sekli rūkas

TAF: EFTU 110233Z 1103/1203 21009KT CAVOK PROB30 TEMPO 1200/1203 3000 MIFG

Orai ataskaitas ir orų prognozės (METAR, TAF).

turimą stotys yra geltonos ir raudonos taškus žemėlapyje.

Perkelti pele per norėdami pamatyti stoties vardą.

Tada spustelėkite, norėdami matyti oro stebėjimo ir prognozės.

Norėdami pakeisti žemėlapį: spustelėkite ant žalios mygtukų su juodo kryžiaus žemyn,; žalią mygtuką su brūkšneliu, jei norite nutolinti; arba žalių rodyklių gretimoms žemėlapius.


METAR-TAF: